Time;durP1;ratioP1;P1;durP2;ratioP2;P2;SDS_P1;SDS_P2;PMS_P1;PMS_P2;Temp;Humidity;BMP_temperature;BMP_pressure;BME280_temperature;BME280_humidity;BME280_pressure;Samples;Min_cycle;Max_cycle;Signal;HPM_P1;HPM_P2
2021/11/28 00:08:19;;;;;;;19.85;11.13;;;;;;;1.71;93.51;98406.69;21162166;28;20397;-83
2021/11/28 00:18:21;;;;;;;18.20;10.05;;;;;;;1.73;93.51;98404.97;21143241;28;20109;-83
2021/11/28 00:28:24;;;;;;;21.30;11.18;;;;;;;1.84;93.55;98416.88;21162866;28;20047;-83
2021/11/28 00:38:26;;;;;;;21.42;12.55;;;;;;;1.85;93.26;98416.00;21157094;28;20055;-83
2021/11/28 00:48:29;;;;;;;17.15;10.30;;;;;;;1.86;92.68;98417.69;21140927;28;20104;-83
2021/11/28 00:58:31;;;;;;;20.67;11.37;;;;;;;1.91;92.65;98423.66;21161962;28;20492;-83
2021/11/28 01:08:33;;;;;;;20.35;11.48;;;;;;;1.91;93.33;98410.75;21137310;28;20196;-83
2021/11/28 01:18:34;;;;;;;20.73;11.50;;;;;;;1.97;93.05;98423.59;21138276;28;20048;-83
2021/11/28 01:28:36;;;;;;;17.10;10.65;;;;;;;1.95;93.21;98435.63;21136091;28;20113;-83
2021/11/28 01:38:38;;;;;;;18.73;10.60;;;;;;;1.89;92.95;98439.16;21135165;28;20044;-83
2021/11/28 01:48:39;;;;;;;19.25;11.05;;;;;;;1.90;93.49;98448.59;21160058;28;20113;-83
2021/11/28 01:58:42;;;;;;;17.48;10.25;;;;;;;1.89;93.35;98440.88;21171620;28;20442;-83
2021/11/28 02:08:44;;;;;;;14.85;9.90;;;;;;;1.88;93.69;98444.34;21168036;28;20048;-83
2021/11/28 02:18:46;;;;;;;19.70;10.35;;;;;;;1.91;93.96;98434.81;21151094;28;20488;-81
2021/11/28 02:28:47;;;;;;;15.95;9.60;;;;;;;1.85;93.16;98445.22;21167626;28;20043;-83
2021/11/28 02:38:51;;;;;;;16.50;9.57;;;;;;;1.85;93.62;98459.84;21146778;28;20120;-83
2021/11/28 02:48:52;;;;;;;19.83;10.15;;;;;;;1.86;93.43;98461.56;21165252;28;20435;-83
2021/11/28 02:58:54;;;;;;;15.45;9.68;;;;;;;1.86;93.48;98461.56;21163337;28;20047;-83
2021/11/28 03:08:55;;;;;;;15.88;9.95;;;;;;;1.92;93.43;98456.34;21144612;28;20040;-82
2021/11/28 03:18:57;;;;;;;17.50;9.85;;;;;;;1.89;92.88;98466.69;21162749;28;20108;-83
2021/11/28 03:29:05;;;;;;;19.95;9.73;;;;;;;1.88;93.61;98467.56;21144640;28;20052;-83
2021/11/28 03:39:09;;;;;;;15.18;9.38;;;;;;;1.91;93.68;98454.59;21160104;28;20051;-83
2021/11/28 03:49:10;;;;;;;16.25;8.27;;;;;;;1.92;93.39;98446.03;21143472;28;20055;-83
2021/11/28 03:59:12;;;;;;;13.77;7.45;;;;;;;1.86;93.60;98446.06;21143238;28;20051;-83
2021/11/28 04:09:14;;;;;;;11.75;6.70;;;;;;;1.77;93.43;98453.06;21157486;28;20039;-83
2021/11/28 04:19:15;;;;;;;12.60;6.82;;;;;;;1.73;93.81;98430.75;21157219;28;20047;-82
2021/11/28 04:29:17;;;;;;;11.13;6.57;;;;;;;1.75;93.44;98416.09;21157232;28;20508;-82
2021/11/28 04:39:19;;;;;;;11.30;6.63;;;;;;;1.77;93.97;98427.28;21137991;28;20051;-82
2021/11/28 04:49:21;;;;;;;13.43;7.50;;;;;;;1.75;94.13;98434.16;21156497;28;20085;-83
2021/11/28 04:59:23;;;;;;;13.32;7.13;;;;;;;1.83;94.33;98428.91;21155807;28;20100;-82
2021/11/28 05:09:24;;;;;;;11.27;6.05;;;;;;;1.79;94.34;98443.56;21149229;28;20052;-82
2021/11/28 05:19:26;;;;;;;15.02;7.30;;;;;;;1.79;93.58;98448.75;21156734;28;20100;-82
2021/11/28 05:29:27;;;;;;;15.90;7.68;;;;;;;1.75;93.83;98446.22;21154597;28;20104;-83
2021/11/28 05:39:29;;;;;;;13.73;7.90;;;;;;;1.71;93.26;98437.66;21177728;28;20058;-82
2021/11/28 05:49:31;;;;;;;15.60;8.75;;;;;;;1.74;94.30;98440.19;21173132;28;20108;-83
2021/11/28 05:59:32;;;;;;;15.30;8.93;;;;;;;1.75;93.75;98441.06;21154027;28;20044;-83
2021/11/28 06:09:34;;;;;;;20.38;9.82;;;;;;;1.74;94.21;98435.03;21169712;28;20052;-83
2021/11/28 06:19:36;;;;;;;18.88;9.93;;;;;;;1.64;93.70;98448.91;21168875;28;20044;-83
2021/11/28 06:29:37;;;;;;;16.13;8.68;;;;;;;1.53;93.16;98450.75;21172146;28;20100;-83
2021/11/28 06:39:39;;;;;;;14.93;9.23;;;;;;;1.18;94.34;98457.13;21153378;28;20536;-83
2021/11/28 06:49:41;;;;;;;19.05;10.35;;;;;;;0.89;94.61;98453.94;21172335;28;20446;-82
2021/11/28 06:59:42;;;;;;;19.85;9.93;;;;;;;0.64;95.21;98463.59;21191707;28;20051;-83
2021/11/28 07:09:48;;;;;;;19.70;11.40;;;;;;;0.50;95.47;98476.56;21172983;28;20043;-83
2021/11/28 07:19:50;;;;;;;24.52;12.82;;;;;;;0.43;95.57;98486.03;21159122;28;20124;-83
2021/11/28 07:29:51;;;;;;;27.13;12.52;;;;;;;0.38;95.41;98492.06;21181971;28;20553;-82
2021/11/28 07:39:53;;;;;;;20.67;11.63;;;;;;;0.30;96.00;98489.53;21177382;28;20036;-84
2021/11/28 07:49:55;;;;;;;26.23;14.57;;;;;;;0.21;95.60;98498.16;21152331;28;20048;-83
2021/11/28 07:59:56;;;;;;;25.67;14.38;;;;;;;0.22;95.79;98517.88;21150700;28;20055;-84
2021/11/28 08:09:58;;;;;;;31.63;16.33;;;;;;;0.34;96.61;98531.56;21118927;28;20052;-84
2021/11/28 08:20:00;;;;;;;31.77;18.20;;;;;;;0.58;95.65;98531.44;21162687;28;20100;-84
2021/11/28 08:30:06;;;;;;;32.30;18.13;;;;;;;0.92;95.35;98520.91;21128574;28;20113;-83
2021/11/28 08:40:09;;;;;;;42.17;23.98;;;;;;;1.31;94.65;98545.53;21111841;28;20102;-84
2021/11/28 08:50:14;;;;;;;36.93;19.43;;;;;;;1.52;93.56;98534.16;21104099;28;20044;-83
2021/11/28 09:00:17;;;;;;;31.50;18.48;;;;;;;1.85;92.76;98550.16;21141438;28;20146;-83
2021/11/28 09:10:21;;;;;;;27.30;16.65;;;;;;;2.12;92.62;98559.34;21064432;28;20087;-83
2021/11/28 09:20:24;;;;;;;28.23;16.23;;;;;;;2.27;92.21;98565.19;21080375;28;20137;-82
2021/11/28 09:30:29;;;;;;;31.15;18.85;;;;;;;2.38;91.63;98569.34;21074018;28;20098;-82
2021/11/28 09:40:31;;;;;;;30.93;18.70;;;;;;;2.38;91.41;98564.19;21081098;28;20056;-84
2021/11/28 09:50:32;;;;;;;20.67;11.93;;;;;;;2.31;90.72;98553.94;21059623;28;20048;-81
2021/11/28 10:00:35;;;;;;;21.80;12.48;;;;;;;2.56;90.62;98553.63;21071612;28;20190;-82
2021/11/28 10:10:37;;;;;;;18.60;10.13;;;;;;;2.64;89.22;98562.13;21085557;28;20055;-82
2021/11/28 10:20:41;;;;;;;14.63;9.13;;;;;;;2.83;89.01;98542.91;21152781;28;20070;-83
2021/11/28 10:30:44;;;;;;;20.73;11.43;;;;;;;3.00;88.89;98528.88;21176907;28;20504;-81
2021/11/28 10:40:46;;;;;;;19.10;10.02;;;;;;;3.27;89.02;98525.88;21163164;28;20052;-81
2021/11/28 10:50:47;;;;;;;19.17;9.95;;;;;;;3.41;88.21;98522.19;21250286;27;20051;-81
2021/11/28 11:00:49;;;;;;;18.52;9.18;;;;;;;3.52;87.48;98512.50;21235987;27;20496;-82
2021/11/28 11:11:08;;;;;;;21.10;9.35;;;;;;;3.68;86.09;98513.94;21250919;27;20051;-82
2021/11/28 11:21:10;;;;;;;17.30;8.45;;;;;;;3.76;85.54;98514.66;21213805;27;20492;-82
2021/11/28 11:31:12;;;;;;;16.67;8.00;;;;;;;4.04;85.83;98521.91;21005566;28;20052;-82
2021/11/28 11:41:14;;;;;;;11.30;6.25;;;;;;;4.00;84.87;98505.56;21025168;28;20048;-82
2021/11/28 11:51:16;;;;;;;15.43;6.18;;;;;;;3.97;84.33;98510.78;21061596;28;20455;-84
2021/11/28 12:01:27;;;;;;;13.63;6.82;;;;;;;4.03;85.09;98505.50;20184446;28;10000455;-81
2021/11/28 12:11:52;;;;;;;14.48;7.03;;;;;;;3.98;84.71;98496.13;20995347;28;20455;-80
2021/11/28 12:21:54;;;;;;;11.10;5.93;;;;;;;3.98;86.37;98489.22;20986375;28;20112;-81
2021/11/28 12:32:17;;;;;;;12.85;7.13;;;;;;;3.97;84.91;98494.41;20977205;28;20053;-80
2021/11/28 12:42:23;;;;;;;12.73;6.90;;;;;;;4.02;83.27;98497.75;20976004;28;20053;-84
2021/11/28 12:52:25;;;;;;;12.45;6.97;;;;;;;4.02;84.44;98492.56;20993683;28;20095;-83
2021/11/28 13:02:44;;;;;;;12.80;6.63;;;;;;;4.03;84.21;98494.31;20991211;28;20118;-84
2021/11/28 13:12:45;;;;;;;12.30;6.82;;;;;;;3.97;83.49;98497.00;20977834;28;20514;-79
2021/11/28 13:22:48;;;;;;;13.45;7.70;;;;;;;4.00;83.50;98509.88;20977237;28;20098;-82
2021/11/28 13:32:49;;;;;;;11.95;7.13;;;;;;;3.80;83.96;98511.13;20972772;28;20049;-82
2021/11/28 13:42:50;;;;;;;9.45;6.03;;;;;;;3.86;83.92;98510.16;20976444;28;20110;-81
2021/11/28 13:52:52;;;;;;;11.18;6.15;;;;;;;3.84;84.16;98517.97;21003122;28;20490;-82
2021/11/28 14:03:02;;;;;;;11.10;4.57;;;;;;;3.63;83.60;98515.75;20986274;28;20110;-82
2021/11/28 14:13:04;;;;;;;10.27;4.63;;;;;;;3.59;82.92;98517.56;20988389;28;20048;-82
2021/11/28 14:23:06;;;;;;;11.20;4.82;;;;;;;3.62;83.50;98526.13;21003569;28;20105;-83
2021/11/28 14:33:12;;;;;;;7.72;4.55;;;;;;;3.51;84.59;98539.25;20984221;28;20114;-82
2021/11/28 14:43:14;;;;;;;12.18;5.82;;;;;;;3.46;85.67;98541.09;20983419;28;20052;-82
2021/11/28 14:53:17;;;;;;;9.05;5.28;;;;;;;3.43;85.41;98551.47;20982859;28;20048;-83
2021/11/28 15:03:18;;;;;;;10.43;5.97;;;;;;;3.36;87.70;98567.97;21009424;28;20441;-83
2021/11/28 15:13:28;;;;;;;11.77;6.13;;;;;;;3.24;88.08;98569.88;21009971;28;20052;-83
2021/11/28 15:23:30;;;;;;;10.15;5.70;;;;;;;3.15;87.50;98570.00;20988078;28;20061;-82
2021/11/28 15:33:32;;;;;;;10.48;5.40;;;;;;;3.14;88.09;98567.44;21001651;28;20111;-82
2021/11/28 15:43:33;;;;;;;12.02;5.68;;;;;;;2.99;89.54;98573.72;20999767;28;20793;-81
2021/11/28 15:53:35;;;;;;;12.23;6.57;;;;;;;2.88;90.58;98573.03;21007617;28;20057;-82
2021/11/28 16:03:37;;;;;;;14.27;7.55;;;;;;;2.87;91.01;98589.38;20993258;28;20410;-81
2021/11/28 16:13:39;;;;;;;12.52;7.32;;;;;;;2.76;91.05;98598.13;21015786;28;20049;-82
2021/11/28 16:23:40;;;;;;;17.05;9.13;;;;;;;2.70;91.27;98594.78;21008130;28;20068;-82
2021/11/28 16:33:42;;;;;;;17.70;10.50;;;;;;;2.66;91.71;98606.88;21024807;28;20044;-82
2021/11/28 16:43:43;;;;;;;17.50;10.45;;;;;;;2.70;92.18;98620.63;21091619;28;20048;-82
2021/11/28 16:53:45;;;;;;;21.80;11.13;;;;;;;2.75;92.49;98629.19;21087614;28;20048;-82
2021/11/28 17:03:47;;;;;;;15.02;8.75;;;;;;;2.76;91.84;98636.91;20999757;28;20075;-83
2021/11/28 17:13:48;;;;;;;19.30;11.13;;;;;;;2.75;92.30;98647.28;20983732;28;20056;-84
2021/11/28 17:23:50;;;;;;;21.15;12.10;;;;;;;2.69;92.38;98658.53;20990441;28;20464;-84
2021/11/28 17:33:52;;;;;;;21.85;12.63;;;;;;;2.59;92.93;98662.09;20991009;28;20053;-83
2021/11/28 17:43:53;;;;;;;27.85;17.60;;;;;;;2.72;92.95;98676.56;21011077;28;20106;-83
2021/11/28 17:53:55;;;;;;;20.40;11.75;;;;;;;2.69;92.55;98668.88;20993033;28;20136;-83
2021/11/28 18:03:57;;;;;;;19.63;10.05;;;;;;;2.60;93.40;98668.97;20994495;28;20048;-82
2021/11/28 18:13:59;;;;;;;15.45;9.40;;;;;;;2.62;93.89;98674.13;20992263;28;20094;-83
2021/11/28 18:24:00;;;;;;;23.17;11.90;;;;;;;2.52;93.70;98697.47;20986934;28;20099;-82
2021/11/28 18:34:03;;;;;;;28.60;14.15;;;;;;;2.50;93.68;98698.38;21018174;28;20055;-83
2021/11/28 18:44:04;;;;;;;16.63;10.75;;;;;;;2.48;93.60;98713.88;20984756;28;20551;-83
2021/11/28 18:54:06;;;;;;;27.20;13.93;;;;;;;2.45;94.07;98719.09;20988304;28;20044;-83
2021/11/28 19:04:08;;;;;;;27.52;13.40;;;;;;;2.48;94.20;98725.94;20088528;28;10000882;-84
2021/11/28 19:14:10;;;;;;;31.88;16.05;;;;;;;2.36;95.22;98736.41;21005973;28;20068;-83
2021/11/28 19:24:11;;;;;;;16.33;9.52;;;;;;;2.37;94.38;98738.09;20988993;28;20056;-83
2021/11/28 19:34:13;;;;;;;20.38;10.63;;;;;;;2.36;94.95;98762.22;20992142;28;20566;-84
2021/11/28 19:44:15;;;;;;;17.53;10.40;;;;;;;2.27;95.22;98753.69;19222647;28;10000985;-82
2021/11/28 19:54:18;;;;;;;19.50;10.18;;;;;;;2.16;95.89;98750.34;20986229;28;20367;-83
2021/11/28 20:04:20;;;;;;;21.98;10.55;;;;;;;2.01;95.86;98765.94;20978660;28;20562;-86
2021/11/28 20:14:22;;;;;;;15.90;10.25;;;;;;;1.94;95.68;98783.19;19253838;28;10000987;-82
2021/11/28 20:24:28;;;;;;;28.42;16.58;;;;;;;1.90;96.10;98788.41;21076880;28;20052;-82
2021/11/28 20:34:30;;;;;;;29.87;19.27;;;;;;;1.86;96.42;98797.03;20166629;28;10001382;-82
2021/11/28 20:44:31;;;;;;;19.83;11.70;;;;;;;1.76;95.77;98815.13;21066547;28;20447;-82
2021/11/28 20:54:33;;;;;;;20.67;11.20;;;;;;;1.69;96.36;98817.78;21074348;28;20055;-84
2021/11/28 21:04:34;;;;;;;18.30;12.05;;;;;;;1.63;96.45;98821.25;21028538;28;20056;-83
2021/11/28 21:14:54;;;;;;;19.05;11.93;;;;;;;1.59;96.01;98835.03;21005754;28;20041;-82
2021/11/28 21:24:56;;;;;;;18.05;10.30;;;;;;;1.42;96.38;98835.09;20978728;28;20414;-83
2021/11/28 21:34:58;;;;;;;16.88;9.88;;;;;;;1.35;96.21;98841.16;20980475;28;20102;-83
2021/11/28 21:44:59;;;;;;;21.90;12.98;;;;;;;1.42;95.80;98840.25;21006087;28;20048;-82
2021/11/28 21:55:01;;;;;;;26.85;15.63;;;;;;;1.38;95.75;98850.56;20149434;28;10000393;-83
2021/11/28 22:05:03;;;;;;;19.67;10.52;;;;;;;1.48;96.06;98857.41;21023503;28;20505;-82
2021/11/28 22:15:09;;;;;;;16.48;9.25;;;;;;;1.54;95.31;98863.41;20990955;28;20417;-83
2021/11/28 22:25:13;;;;;;;12.05;7.25;;;;;;;1.57;94.22;98872.00;20992234;28;20045;-82
2021/11/28 22:35:16;;;;;;;14.45;7.70;;;;;;;1.62;93.51;98876.28;20778948;23;20059;-67
2021/11/28 22:45:19;;;;;;;13.88;7.75;;;;;;;1.58;93.39;98890.03;20578665;28;20081;-67
2021/11/28 22:55:23;;;;;;;14.02;7.70;;;;;;;1.59;93.14;98907.25;20577567;28;20479;-67
2021/11/28 23:05:25;;;;;;;14.60;7.97;;;;;;;1.60;93.13;98903.81;20620465;28;20054;-67
2021/11/28 23:15:27;;;;;;;24.38;11.88;;;;;;;1.61;92.64;98913.25;20665142;28;20058;-68
2021/11/28 23:25:28;;;;;;;13.38;8.00;;;;;;;1.67;92.96;98939.03;20662053;28;20054;-67
2021/11/28 23:35:30;;;;;;;36.63;15.07;;;;;;;1.66;92.77;98945.06;20660571;28;20057;-67
2021/11/28 23:45:32;;;;;;;21.17;11.32;;;;;;;1.54;94.05;98920.16;20659611;28;20058;-68
2021/11/28 23:55:35;;;;;;;14.45;8.60;;;;;;;1.48;93.92;98938.22;20659079;28;20086;-67
